sensor_id;sensor_type;location;lat;lon;timestamp;temperature;humidity
58983;DHT22;44771;49.982;8.560;2023-12-20T00:04:49;4.10;99.90
58983;DHT22;44771;49.982;8.560;2023-12-20T00:09:52;4.10;99.90
58983;DHT22;44771;49.982;8.560;2023-12-20T00:14:54;4.00;99.90
58983;DHT22;44771;49.982;8.560;2023-12-20T00:19:56;4.10;99.90
58983;DHT22;44771;49.982;8.560;2023-12-20T00:24:59;4.10;99.90
58983;DHT22;44771;49.982;8.560;2023-12-20T00:30:01;4.10;99.90
58983;DHT22;44771;49.982;8.560;2023-12-20T00:35:04;4.10;99.90
58983;DHT22;44771;49.982;8.560;2023-12-20T00:40:08;4.10;99.90
58983;DHT22;44771;49.982;8.560;2023-12-20T00:45:10;4.10;99.90
58983;DHT22;44771;49.982;8.560;2023-12-20T00:50:12;4.00;99.90
58983;DHT22;44771;49.982;8.560;2023-12-20T00:55:16;4.10;99.90
58983;DHT22;44771;49.982;8.560;2023-12-20T01:00:18;4.10;99.90
58983;DHT22;44771;49.982;8.560;2023-12-20T01:05:20;4.00;99.90
58983;DHT22;44771;49.982;8.560;2023-12-20T01:10:24;3.90;99.90
58983;DHT22;44771;49.982;8.560;2023-12-20T01:15:26;3.90;99.90
58983;DHT22;44771;49.982;8.560;2023-12-20T01:20:27;4.00;99.90
58983;DHT22;44771;49.982;8.560;2023-12-20T01:25:30;3.90;99.90
58983;DHT22;44771;49.982;8.560;2023-12-20T01:30:32;4.00;99.90
58983;DHT22;44771;49.982;8.560;2023-12-20T01:35:34;3.90;99.90
58983;DHT22;44771;49.982;8.560;2023-12-20T01:40:37;3.90;99.90
58983;DHT22;44771;49.982;8.560;2023-12-20T01:45:39;3.90;99.90
58983;DHT22;44771;49.982;8.560;2023-12-20T01:50:41;3.90;99.90
58983;DHT22;44771;49.982;8.560;2023-12-20T01:55:45;3.90;99.90
58983;DHT22;44771;49.982;8.560;2023-12-20T02:00:47;3.90;99.90
58983;DHT22;44771;49.982;8.560;2023-12-20T02:05:50;3.90;99.90
58983;DHT22;44771;49.982;8.560;2023-12-20T02:10:54;3.90;99.90
58983;DHT22;44771;49.982;8.560;2023-12-20T02:15:56;3.90;99.90
58983;DHT22;44771;49.982;8.560;2023-12-20T02:20:58;3.90;99.90
58983;DHT22;44771;49.982;8.560;2023-12-20T02:26:01;3.90;99.90
58983;DHT22;44771;49.982;8.560;2023-12-20T02:31:03;3.90;99.90
58983;DHT22;44771;49.982;8.560;2023-12-20T02:36:06;3.80;99.90
58983;DHT22;44771;49.982;8.560;2023-12-20T02:41:09;3.80;99.90
58983;DHT22;44771;49.982;8.560;2023-12-20T02:46:12;3.80;99.90
58983;DHT22;44771;49.982;8.560;2023-12-20T02:51:15;3.80;99.90
58983;DHT22;44771;49.982;8.560;2023-12-20T02:56:18;3.80;99.90
58983;DHT22;44771;49.982;8.560;2023-12-20T03:01:20;3.80;99.90
58983;DHT22;44771;49.982;8.560;2023-12-20T03:06:22;3.80;99.90
58983;DHT22;44771;49.982;8.560;2023-12-20T03:11:28;3.80;99.90
58983;DHT22;44771;49.982;8.560;2023-12-20T03:16:30;3.80;99.90
58983;DHT22;44771;49.982;8.560;2023-12-20T03:21:31;3.80;99.90
58983;DHT22;44771;49.982;8.560;2023-12-20T03:26:34;3.80;99.90
58983;DHT22;44771;49.982;8.560;2023-12-20T03:31:36;3.90;99.90
58983;DHT22;44771;49.982;8.560;2023-12-20T03:36:38;3.90;99.90
58983;DHT22;44771;49.982;8.560;2023-12-20T03:41:41;3.90;99.90
58983;DHT22;44771;49.982;8.560;2023-12-20T03:46:43;3.90;99.90
58983;DHT22;44771;49.982;8.560;2023-12-20T03:51:45;3.90;99.90
58983;DHT22;44771;49.982;8.560;2023-12-20T03:56:48;4.00;99.90
58983;DHT22;44771;49.982;8.560;2023-12-20T04:01:50;4.00;99.90
58983;DHT22;44771;49.982;8.560;2023-12-20T04:06:52;4.00;99.90
58983;DHT22;44771;49.982;8.560;2023-12-20T04:11:55;4.00;99.90
58983;DHT22;44771;49.982;8.560;2023-12-20T04:16:57;4.10;99.90
58983;DHT22;44771;49.982;8.560;2023-12-20T04:21:58;4.10;99.90
58983;DHT22;44771;49.982;8.560;2023-12-20T04:27:02;4.10;99.90
58983;DHT22;44771;49.982;8.560;2023-12-20T04:32:04;4.10;99.90
58983;DHT22;44771;49.982;8.560;2023-12-20T04:37:06;4.00;99.90
58983;DHT22;44771;49.982;8.560;2023-12-20T04:42:09;4.10;99.90
58983;DHT22;44771;49.982;8.560;2023-12-20T04:47:11;4.00;99.90
58983;DHT22;44771;49.982;8.560;2023-12-20T04:52:14;4.10;99.90
58983;DHT22;44771;49.982;8.560;2023-12-20T04:57:17;4.10;99.90
58983;DHT22;44771;49.982;8.560;2023-12-20T05:02:19;4.00;99.90
58983;DHT22;44771;49.982;8.560;2023-12-20T05:07:21;3.80;99.90
58983;DHT22;44771;49.982;8.560;2023-12-20T05:12:24;3.70;99.90
58983;DHT22;44771;49.982;8.560;2023-12-20T05:17:26;3.80;99.90
58983;DHT22;44771;49.982;8.560;2023-12-20T05:22:28;4.00;99.90
58983;DHT22;44771;49.982;8.560;2023-12-20T05:27:31;4.20;99.90
58983;DHT22;44771;49.982;8.560;2023-12-20T05:32:33;4.20;99.90
58983;DHT22;44771;49.982;8.560;2023-12-20T05:37:35;4.10;99.90
58983;DHT22;44771;49.982;8.560;2023-12-20T05:42:38;4.00;99.90
58983;DHT22;44771;49.982;8.560;2023-12-20T05:47:40;3.90;99.90
58983;DHT22;44771;49.982;8.560;2023-12-20T05:52:56;3.70;99.90
58983;DHT22;44771;49.982;8.560;2023-12-20T06:03:42;3.60;99.90
58983;DHT22;44771;49.982;8.560;2023-12-20T06:08:44;3.50;99.90
58983;DHT22;44771;49.982;8.560;2023-12-20T06:13:49;3.50;99.90
58983;DHT22;44771;49.982;8.560;2023-12-20T06:18:52;3.40;99.90
58983;DHT22;44771;49.982;8.560;2023-12-20T06:25:03;3.20;99.90
58983;DHT22;44771;49.982;8.560;2023-12-20T06:30:09;3.10;99.90
58983;DHT22;44771;49.982;8.560;2023-12-20T06:35:13;3.10;99.90
58983;DHT22;44771;49.982;8.560;2023-12-20T06:40:20;2.90;99.90
58983;DHT22;44771;49.982;8.560;2023-12-20T06:45:22;2.80;99.90
58983;DHT22;44771;49.982;8.560;2023-12-20T06:50:40;2.90;99.90
58983;DHT22;44771;49.982;8.560;2023-12-20T06:55:42;2.90;99.90
58983;DHT22;44771;49.982;8.560;2023-12-20T07:00:44;2.90;99.90
58983;DHT22;44771;49.982;8.560;2023-12-20T07:05:48;2.80;99.90
58983;DHT22;44771;49.982;8.560;2023-12-20T07:10:49;2.90;99.90
58983;DHT22;44771;49.982;8.560;2023-12-20T07:15:51;2.90;99.90
58983;DHT22;44771;49.982;8.560;2023-12-20T07:20:54;2.90;99.90
58983;DHT22;44771;49.982;8.560;2023-12-20T07:25:56;2.90;99.90
58983;DHT22;44771;49.982;8.560;2023-12-20T07:30:58;2.90;99.90
58983;DHT22;44771;49.982;8.560;2023-12-20T07:36:02;2.90;99.90
58983;DHT22;44771;49.982;8.560;2023-12-20T07:42:19;2.80;99.90
58983;DHT22;44771;49.982;8.560;2023-12-20T07:46:45;2.90;99.90
58983;DHT22;44771;49.982;8.560;2023-12-20T07:51:50;3.00;99.90
58983;DHT22;44771;49.982;8.560;2023-12-20T07:56:52;3.00;99.90
58983;DHT22;44771;49.982;8.560;2023-12-20T08:01:54;3.10;99.90
58983;DHT22;44771;49.982;8.560;2023-12-20T08:06:57;3.20;99.90
58983;DHT22;44771;49.982;8.560;2023-12-20T08:11:59;3.20;99.90
58983;DHT22;44771;49.982;8.560;2023-12-20T08:17:01;3.40;99.90
58983;DHT22;44771;49.982;8.560;2023-12-20T08:22:04;3.50;99.90
58983;DHT22;44771;49.982;8.560;2023-12-20T08:27:06;3.60;99.90
58983;DHT22;44771;49.982;8.560;2023-12-20T08:32:08;3.60;99.90
58983;DHT22;44771;49.982;8.560;2023-12-20T08:37:11;3.60;99.90
58983;DHT22;44771;49.982;8.560;2023-12-20T08:42:13;3.60;99.90
58983;DHT22;44771;49.982;8.560;2023-12-20T08:47:15;3.70;99.90
58983;DHT22;44771;49.982;8.560;2023-12-20T08:52:18;3.90;99.90
58983;DHT22;44771;49.982;8.560;2023-12-20T08:57:20;4.10;99.90
58983;DHT22;44771;49.982;8.560;2023-12-20T09:02:22;4.10;99.90
58983;DHT22;44771;49.982;8.560;2023-12-20T09:07:26;4.40;99.90
58983;DHT22;44771;49.982;8.560;2023-12-20T09:12:28;4.40;99.90
58983;DHT22;44771;49.982;8.560;2023-12-20T09:17:30;4.50;99.90
58983;DHT22;44771;49.982;8.560;2023-12-20T09:22:36;4.50;99.90
58983;DHT22;44771;49.982;8.560;2023-12-20T09:27:37;4.60;99.90
58983;DHT22;44771;49.982;8.560;2023-12-20T09:32:41;4.70;99.90
58983;DHT22;44771;49.982;8.560;2023-12-20T09:37:46;4.90;99.90
58983;DHT22;44771;49.982;8.560;2023-12-20T09:42:55;4.90;99.90
58983;DHT22;44771;49.982;8.560;2023-12-20T09:47:58;4.90;99.90
58983;DHT22;44771;49.982;8.560;2023-12-20T09:53:02;4.90;99.90
58983;DHT22;44771;49.982;8.560;2023-12-20T09:58:06;5.00;99.90
58983;DHT22;44771;49.982;8.560;2023-12-20T10:03:08;5.00;99.90
58983;DHT22;44771;49.982;8.560;2023-12-20T10:08:12;5.10;99.90
58983;DHT22;44771;49.982;8.560;2023-12-20T10:13:15;5.10;99.90
58983;DHT22;44771;49.982;8.560;2023-12-20T10:18:17;5.20;99.90
58983;DHT22;44771;49.982;8.560;2023-12-20T10:23:20;5.10;99.90
58983;DHT22;44771;49.982;8.560;2023-12-20T10:28:22;5.20;99.90
58983;DHT22;44771;49.982;8.560;2023-12-20T10:33:24;5.20;99.90
58983;DHT22;44771;49.982;8.560;2023-12-20T10:38:27;5.40;99.90
58983;DHT22;44771;49.982;8.560;2023-12-20T10:43:30;5.40;99.90
58983;DHT22;44771;49.982;8.560;2023-12-20T10:48:34;5.30;99.90
58983;DHT22;44771;49.982;8.560;2023-12-20T10:53:39;5.40;99.90
58983;DHT22;44771;49.982;8.560;2023-12-20T10:58:42;5.80;99.90
58983;DHT22;44771;49.982;8.560;2023-12-20T11:03:48;6.20;99.90
58983;DHT22;44771;49.982;8.560;2023-12-20T11:08:58;6.20;99.90
58983;DHT22;44771;49.982;8.560;2023-12-20T11:14:03;6.50;99.90
58983;DHT22;44771;49.982;8.560;2023-12-20T11:19:07;6.80;99.90
58983;DHT22;44771;49.982;8.560;2023-12-20T11:24:11;6.90;99.90
58983;DHT22;44771;49.982;8.560;2023-12-20T11:29:34;6.70;99.90
58983;DHT22;44771;49.982;8.560;2023-12-20T11:34:36;6.70;99.90
58983;DHT22;44771;49.982;8.560;2023-12-20T11:39:40;7.00;99.90
58983;DHT22;44771;49.982;8.560;2023-12-20T11:44:42;6.90;99.90
58983;DHT22;44771;49.982;8.560;2023-12-20T11:49:44;7.10;99.90
58983;DHT22;44771;49.982;8.560;2023-12-20T11:54:47;7.20;99.90
58983;DHT22;44771;49.982;8.560;2023-12-20T11:59:49;7.20;99.90
58983;DHT22;44771;49.982;8.560;2023-12-20T12:04:51;7.00;99.90
58983;DHT22;44771;49.982;8.560;2023-12-20T12:09:54;6.80;99.90
58983;DHT22;44771;49.982;8.560;2023-12-20T12:14:56;6.80;99.90
58983;DHT22;44771;49.982;8.560;2023-12-20T12:20:02;6.80;99.90
58983;DHT22;44771;49.982;8.560;2023-12-20T12:25:13;6.90;99.90
58983;DHT22;44771;49.982;8.560;2023-12-20T12:30:16;7.60;99.90
58983;DHT22;44771;49.982;8.560;2023-12-20T12:35:27;8.30;99.90
58983;DHT22;44771;49.982;8.560;2023-12-20T12:40:28;8.80;99.90
58983;DHT22;44771;49.982;8.560;2023-12-20T12:45:30;8.70;99.90
58983;DHT22;44771;49.982;8.560;2023-12-20T12:50:33;8.80;99.90
58983;DHT22;44771;49.982;8.560;2023-12-20T12:55:35;8.40;99.90
58983;DHT22;44771;49.982;8.560;2023-12-20T13:00:37;7.90;99.90
58983;DHT22;44771;49.982;8.560;2023-12-20T13:05:41;7.60;99.90
58983;DHT22;44771;49.982;8.560;2023-12-20T13:10:46;7.60;99.90
58983;DHT22;44771;49.982;8.560;2023-12-20T13:15:48;7.60;99.90
58983;DHT22;44771;49.982;8.560;2023-12-20T13:20:51;7.50;99.90
58983;DHT22;44771;49.982;8.560;2023-12-20T13:25:54;7.40;99.90
58983;DHT22;44771;49.982;8.560;2023-12-20T13:30:57;7.40;99.90
58983;DHT22;44771;49.982;8.560;2023-12-20T13:36:04;7.40;99.90
58983;DHT22;44771;49.982;8.560;2023-12-20T13:41:09;7.40;99.90
58983;DHT22;44771;49.982;8.560;2023-12-20T13:46:10;7.40;99.90
58983;DHT22;44771;49.982;8.560;2023-12-20T13:51:14;7.40;99.90
58983;DHT22;44771;49.982;8.560;2023-12-20T13:56:16;7.30;99.90
58983;DHT22;44771;49.982;8.560;2023-12-20T14:01:17;7.30;99.90
58983;DHT22;44771;49.982;8.560;2023-12-20T14:06:21;7.30;99.90
58983;DHT22;44771;49.982;8.560;2023-12-20T14:11:22;7.20;99.90
58983;DHT22;44771;49.982;8.560;2023-12-20T14:16:26;7.20;99.90
58983;DHT22;44771;49.982;8.560;2023-12-20T14:21:29;7.10;99.90
58983;DHT22;44771;49.982;8.560;2023-12-20T14:26:31;7.10;99.90
58983;DHT22;44771;49.982;8.560;2023-12-20T14:31:33;7.00;99.90
58983;DHT22;44771;49.982;8.560;2023-12-20T14:36:37;7.00;99.90
58983;DHT22;44771;49.982;8.560;2023-12-20T14:41:38;7.00;99.90
58983;DHT22;44771;49.982;8.560;2023-12-20T14:46:40;7.00;99.90
58983;DHT22;44771;49.982;8.560;2023-12-20T14:51:48;7.00;99.90
58983;DHT22;44771;49.982;8.560;2023-12-20T14:56:50;7.00;99.90
58983;DHT22;44771;49.982;8.560;2023-12-20T15:01:51;6.90;99.90
58983;DHT22;44771;49.982;8.560;2023-12-20T15:06:55;6.90;99.90
58983;DHT22;44771;49.982;8.560;2023-12-20T15:11:57;6.90;99.90
58983;DHT22;44771;49.982;8.560;2023-12-20T15:16:58;6.70;99.90
58983;DHT22;44771;49.982;8.560;2023-12-20T15:22:02;6.70;99.90
58983;DHT22;44771;49.982;8.560;2023-12-20T15:27:04;6.60;99.90
58983;DHT22;44771;49.982;8.560;2023-12-20T15:32:08;6.60;99.90
58983;DHT22;44771;49.982;8.560;2023-12-20T15:37:12;6.50;99.90
58983;DHT22;44771;49.982;8.560;2023-12-20T15:42:14;6.50;99.90
58983;DHT22;44771;49.982;8.560;2023-12-20T15:47:23;6.50;99.90
58983;DHT22;44771;49.982;8.560;2023-12-20T15:52:26;6.40;99.90
58983;DHT22;44771;49.982;8.560;2023-12-20T15:57:28;6.50;99.90
58983;DHT22;44771;49.982;8.560;2023-12-20T16:02:46;6.30;99.90
58983;DHT22;44771;49.982;8.560;2023-12-20T16:07:49;6.30;99.90
58983;DHT22;44771;49.982;8.560;2023-12-20T16:12:51;6.30;99.90
58983;DHT22;44771;49.982;8.560;2023-12-20T16:17:53;6.30;99.90
58983;DHT22;44771;49.982;8.560;2023-12-20T16:22:57;6.30;99.90
58983;DHT22;44771;49.982;8.560;2023-12-20T16:27:58;6.30;99.90
58983;DHT22;44771;49.982;8.560;2023-12-20T16:33:00;6.30;99.90
58983;DHT22;44771;49.982;8.560;2023-12-20T16:38:04;6.30;99.90
58983;DHT22;44771;49.982;8.560;2023-12-20T16:43:06;6.30;99.90
58983;DHT22;44771;49.982;8.560;2023-12-20T16:48:08;6.40;99.90
58983;DHT22;44771;49.982;8.560;2023-12-20T16:53:12;6.40;99.90
58983;DHT22;44771;49.982;8.560;2023-12-20T16:58:13;6.30;99.90
58983;DHT22;44771;49.982;8.560;2023-12-20T17:03:15;6.30;99.90
58983;DHT22;44771;49.982;8.560;2023-12-20T17:08:19;6.30;99.90
58983;DHT22;44771;49.982;8.560;2023-12-20T17:13:20;6.30;99.90
58983;DHT22;44771;49.982;8.560;2023-12-20T17:18:22;6.30;99.90
58983;DHT22;44771;49.982;8.560;2023-12-20T17:23:25;6.30;99.90
58983;DHT22;44771;49.982;8.560;2023-12-20T17:28:27;6.20;99.90
58983;DHT22;44771;49.982;8.560;2023-12-20T17:33:29;6.30;99.90
58983;DHT22;44771;49.982;8.560;2023-12-20T17:38:33;6.30;99.90
58983;DHT22;44771;49.982;8.560;2023-12-20T17:43:34;6.30;99.90
58983;DHT22;44771;49.982;8.560;2023-12-20T17:48:36;6.30;99.90
58983;DHT22;44771;49.982;8.560;2023-12-20T17:53:40;6.30;99.90
58983;DHT22;44771;49.982;8.560;2023-12-20T17:58:41;6.30;99.90
58983;DHT22;44771;49.982;8.560;2023-12-20T18:03:43;6.40;99.90
58983;DHT22;44771;49.982;8.560;2023-12-20T18:08:47;6.40;99.90
58983;DHT22;44771;49.982;8.560;2023-12-20T18:13:49;6.40;99.90
58983;DHT22;44771;49.982;8.560;2023-12-20T18:18:50;6.40;99.90
58983;DHT22;44771;49.982;8.560;2023-12-20T18:23:54;6.50;99.90
58983;DHT22;44771;49.982;8.560;2023-12-20T18:29:08;6.50;99.90
58983;DHT22;44771;49.982;8.560;2023-12-20T18:34:10;6.60;99.90
58983;DHT22;44771;49.982;8.560;2023-12-20T18:39:13;6.60;99.90
58983;DHT22;44771;49.982;8.560;2023-12-20T18:44:18;6.60;99.90
58983;DHT22;44771;49.982;8.560;2023-12-20T18:49:19;6.70;99.90
58983;DHT22;44771;49.982;8.560;2023-12-20T18:54:23;6.70;99.90
58983;DHT22;44771;49.982;8.560;2023-12-20T18:59:24;6.70;99.90
58983;DHT22;44771;49.982;8.560;2023-12-20T19:04:26;6.60;99.90
58983;DHT22;44771;49.982;8.560;2023-12-20T19:09:30;6.50;99.90
58983;DHT22;44771;49.982;8.560;2023-12-20T19:14:31;6.40;99.90
58983;DHT22;44771;49.982;8.560;2023-12-20T19:19:33;6.30;99.90
58983;DHT22;44771;49.982;8.560;2023-12-20T19:24:37;6.30;99.90
58983;DHT22;44771;49.982;8.560;2023-12-20T19:29:38;6.30;99.90
58983;DHT22;44771;49.982;8.560;2023-12-20T19:34:40;6.30;99.90
58983;DHT22;44771;49.982;8.560;2023-12-20T19:39:44;6.30;99.90
58983;DHT22;44771;49.982;8.560;2023-12-20T19:44:49;6.20;99.90
58983;DHT22;44771;49.982;8.560;2023-12-20T19:49:51;6.20;99.90
58983;DHT22;44771;49.982;8.560;2023-12-20T19:54:54;6.10;99.90
58983;DHT22;44771;49.982;8.560;2023-12-20T19:59:56;6.20;99.90
58983;DHT22;44771;49.982;8.560;2023-12-20T20:04:58;6.20;99.90
58983;DHT22;44771;49.982;8.560;2023-12-20T20:10:02;6.20;99.90
58983;DHT22;44771;49.982;8.560;2023-12-20T20:15:05;6.20;99.90
58983;DHT22;44771;49.982;8.560;2023-12-20T20:20:08;6.20;99.90
58983;DHT22;44771;49.982;8.560;2023-12-20T20:25:11;6.30;99.90
58983;DHT22;44771;49.982;8.560;2023-12-20T20:30:13;6.20;99.90
58983;DHT22;44771;49.982;8.560;2023-12-20T20:35:15;6.20;99.90
58983;DHT22;44771;49.982;8.560;2023-12-20T20:40:18;6.20;99.90
58983;DHT22;44771;49.982;8.560;2023-12-20T20:45:21;6.20;99.90
58983;DHT22;44771;49.982;8.560;2023-12-20T20:50:22;6.20;99.90
58983;DHT22;44771;49.982;8.560;2023-12-20T20:55:26;6.30;99.90
58983;DHT22;44771;49.982;8.560;2023-12-20T21:00:27;6.30;99.90
58983;DHT22;44771;49.982;8.560;2023-12-20T21:05:29;6.30;99.90
58983;DHT22;44771;49.982;8.560;2023-12-20T21:10:32;6.30;99.90
58983;DHT22;44771;49.982;8.560;2023-12-20T21:15:34;6.30;99.90
58983;DHT22;44771;49.982;8.560;2023-12-20T21:20:36;6.40;99.90
58983;DHT22;44771;49.982;8.560;2023-12-20T21:25:42;6.40;99.90
58983;DHT22;44771;49.982;8.560;2023-12-20T21:30:44;6.40;99.90
58983;DHT22;44771;49.982;8.560;2023-12-20T21:35:46;6.40;99.90
58983;DHT22;44771;49.982;8.560;2023-12-20T21:40:49;6.40;99.90
58983;DHT22;44771;49.982;8.560;2023-12-20T21:45:53;6.40;99.90
58983;DHT22;44771;49.982;8.560;2023-12-20T21:50:58;6.50;99.90
58983;DHT22;44771;49.982;8.560;2023-12-20T21:56:02;6.50;99.90
58983;DHT22;44771;49.982;8.560;2023-12-20T22:01:04;6.50;99.90
58983;DHT22;44771;49.982;8.560;2023-12-20T22:06:07;6.40;99.90
58983;DHT22;44771;49.982;8.560;2023-12-20T22:11:11;6.40;99.90
58983;DHT22;44771;49.982;8.560;2023-12-20T22:16:12;6.50;99.90
58983;DHT22;44771;49.982;8.560;2023-12-20T22:21:14;6.60;99.90
58983;DHT22;44771;49.982;8.560;2023-12-20T22:26:18;6.60;99.90
58983;DHT22;44771;49.982;8.560;2023-12-20T22:31:20;6.60;99.90
58983;DHT22;44771;49.982;8.560;2023-12-20T22:36:22;6.50;99.90
58983;DHT22;44771;49.982;8.560;2023-12-20T22:41:26;6.50;99.90
58983;DHT22;44771;49.982;8.560;2023-12-20T22:46:27;6.40;99.90
58983;DHT22;44771;49.982;8.560;2023-12-20T22:51:29;6.40;99.90
58983;DHT22;44771;49.982;8.560;2023-12-20T22:56:32;6.40;99.90
58983;DHT22;44771;49.982;8.560;2023-12-20T23:01:34;6.40;99.90
58983;DHT22;44771;49.982;8.560;2023-12-20T23:06:36;6.40;99.90
58983;DHT22;44771;49.982;8.560;2023-12-20T23:11:39;6.30;99.90
58983;DHT22;44771;49.982;8.560;2023-12-20T23:16:41;6.30;99.90
58983;DHT22;44771;49.982;8.560;2023-12-20T23:21:43;6.20;99.90
58983;DHT22;44771;49.982;8.560;2023-12-20T23:26:46;6.20;99.90
58983;DHT22;44771;49.982;8.560;2023-12-20T23:31:48;6.20;99.90
58983;DHT22;44771;49.982;8.560;2023-12-20T23:36:50;6.30;99.90
58983;DHT22;44771;49.982;8.560;2023-12-20T23:41:53;6.40;99.90
58983;DHT22;44771;49.982;8.560;2023-12-20T23:46:55;6.40;99.90
58983;DHT22;44771;49.982;8.560;2023-12-20T23:51:57;6.50;99.90
58983;DHT22;44771;49.982;8.560;2023-12-20T23:57:00;6.40;99.90
